createdAt,value
2022-11-02T00:02:39.212Z,99.90
2022-11-02T00:07:41.982Z,99.90
2022-11-02T00:12:44.179Z,99.90
2022-11-02T00:17:49.974Z,99.90
2022-11-02T00:22:56.036Z,99.90
2022-11-02T00:27:58.057Z,99.90
2022-11-02T00:32:59.866Z,99.90
2022-11-02T00:38:02.032Z,99.90
2022-11-02T00:43:04.312Z,99.90
2022-11-02T00:48:07.084Z,99.90
2022-11-02T00:53:09.138Z,99.90
2022-11-02T00:58:15.920Z,99.90
2022-11-02T01:03:17.785Z,99.90
2022-11-02T01:08:19.562Z,99.90
2022-11-02T01:13:21.369Z,99.90
2022-11-02T01:18:23.229Z,99.90
2022-11-02T01:23:25.664Z,99.90
2022-11-02T01:28:27.512Z,99.90
2022-11-02T01:33:29.498Z,99.90
2022-11-02T01:38:32.627Z,99.90
2022-11-02T01:43:36.288Z,99.90
2022-11-02T01:48:57.551Z,99.90
2022-11-02T01:54:07.143Z,99.90
2022-11-02T01:59:16.019Z,99.90
2022-11-02T02:04:17.871Z,99.90
2022-11-02T02:09:21.597Z,99.90
2022-11-02T02:14:23.774Z,99.90
2022-11-02T02:19:51.695Z,99.90
2022-11-02T02:25:12.249Z,99.90
2022-11-02T02:30:16.157Z,99.90
2022-11-02T02:35:21.233Z,99.90
2022-11-02T02:40:36.387Z,99.90
2022-11-02T02:45:47.039Z,99.90
2022-11-02T02:50:51.504Z,99.90
2022-11-02T02:55:55.421Z,99.90
2022-11-02T03:01:00.029Z,99.90
2022-11-02T03:06:20.051Z,99.90
2022-11-02T03:11:28.107Z,99.90
2022-11-02T03:17:09.497Z,99.90
2022-11-02T03:22:38.257Z,99.90
2022-11-02T03:27:53.133Z,99.90
2022-11-02T03:33:18.692Z,99.90
2022-11-02T03:38:43.936Z,99.90
2022-11-02T03:43:47.004Z,99.90
2022-11-02T03:48:50.188Z,99.90
2022-11-02T03:53:59.296Z,99.90
2022-11-02T03:59:02.737Z,99.90
2022-11-02T04:04:05.626Z,99.90
2022-11-02T04:09:09.108Z,99.90
2022-11-02T04:14:30.673Z,99.90
2022-11-02T04:19:34.061Z,99.90
2022-11-02T04:24:58.071Z,99.90
2022-11-02T04:30:00.662Z,99.90
2022-11-02T04:35:06.100Z,99.90
2022-11-02T04:40:08.600Z,99.90
2022-11-02T04:45:10.635Z,99.90
2022-11-02T04:50:12.861Z,99.90
2022-11-02T04:55:15.749Z,99.90
2022-11-02T05:00:19.131Z,99.90
2022-11-02T05:05:21.209Z,99.90
2022-11-02T05:10:25.390Z,99.90
2022-11-02T05:15:28.252Z,99.90
2022-11-02T05:20:30.346Z,99.90
2022-11-02T05:25:33.815Z,99.90
2022-11-02T05:30:36.157Z,99.90
2022-11-02T05:35:38.162Z,99.90
2022-11-02T05:40:40.934Z,99.90
2022-11-02T05:45:45.006Z,99.90
2022-11-02T05:50:47.000Z,99.90
2022-11-02T05:55:48.972Z,99.90
2022-11-02T06:00:50.847Z,99.90
2022-11-02T06:06:00.172Z,99.90
2022-11-02T06:11:10.481Z,99.90
2022-11-02T06:16:19.953Z,99.90
2022-11-02T06:21:24.492Z,99.90
2022-11-02T06:26:26.316Z,99.90
2022-11-02T06:31:28.133Z,99.90
2022-11-02T06:36:29.979Z,99.90
2022-11-02T06:41:31.807Z,99.90
2022-11-02T06:46:33.603Z,99.90
2022-11-02T06:51:35.497Z,99.90
2022-11-02T06:56:37.356Z,99.90
2022-11-02T07:01:39.370Z,99.90
2022-11-02T07:06:41.322Z,99.90
2022-11-02T07:11:43.246Z,99.90
2022-11-02T07:16:45.113Z,99.90
2022-11-02T07:21:47.903Z,99.90
2022-11-02T07:26:50.581Z,99.90
2022-11-02T07:31:52.409Z,99.90
2022-11-02T07:36:55.980Z,99.90
2022-11-02T07:41:58.031Z,99.90
2022-11-02T07:47:01.478Z,99.90
2022-11-02T07:52:03.315Z,99.90
2022-11-02T07:57:05.204Z,99.90
2022-11-02T08:02:09.422Z,99.90
2022-11-02T08:07:11.548Z,99.90
2022-11-02T08:12:13.371Z,99.90
2022-11-02T08:17:15.200Z,99.90
2022-11-02T08:22:17.077Z,99.90
2022-11-02T08:27:19.001Z,99.90
2022-11-02T08:32:21.091Z,99.90
2022-11-02T08:37:23.037Z,99.90
2022-11-02T08:42:25.044Z,99.90
2022-11-02T08:47:26.854Z,99.90
2022-11-02T08:52:28.649Z,99.90
2022-11-02T08:57:30.500Z,99.90
2022-11-02T09:02:32.312Z,99.90
2022-11-02T09:07:34.151Z,99.90
2022-11-02T09:12:35.981Z,99.90
2022-11-02T09:17:37.818Z,99.90
2022-11-02T09:22:39.626Z,99.90
2022-11-02T09:27:42.425Z,99.90
2022-11-02T09:32:44.271Z,99.90
2022-11-02T09:37:50.050Z,99.90
2022-11-02T09:43:08.544Z,99.90
2022-11-02T09:48:23.500Z,99.90
2022-11-02T09:53:46.919Z,99.90
2022-11-02T09:59:04.848Z,99.90
2022-11-02T10:04:42.940Z,99.90
2022-11-02T10:09:58.560Z,99.90
2022-11-02T10:15:19.159Z,99.90
2022-11-02T10:20:36.378Z,99.90
2022-11-02T10:25:38.449Z,99.90
2022-11-02T10:30:42.171Z,99.90
2022-11-02T10:36:18.003Z,99.90
2022-11-02T10:41:29.081Z,99.90
2022-11-02T10:46:38.253Z,99.90
2022-11-02T10:51:40.518Z,99.90
2022-11-02T10:56:43.523Z,99.90
2022-11-02T11:01:58.936Z,99.90
2022-11-02T11:07:06.758Z,99.90
2022-11-02T11:12:22.167Z,99.90
2022-11-02T11:23:26.019Z,99.90
2022-11-02T11:28:42.696Z,99.80
2022-11-02T11:33:48.446Z,99.90
2022-11-02T11:38:51.843Z,99.90
2022-11-02T11:43:54.296Z,99.90
2022-11-02T11:48:57.659Z,99.90
2022-11-02T11:54:22.960Z,99.90
2022-11-02T11:59:46.010Z,99.90
2022-11-02T12:04:48.030Z,99.90
2022-11-02T12:09:58.213Z,98.70
2022-11-02T12:15:35.306Z,97.00
2022-11-02T12:21:06.577Z,97.40
2022-11-02T12:26:31.255Z,96.10
2022-11-02T12:31:37.363Z,95.40
2022-11-02T12:37:32.752Z,94.80
2022-11-02T12:42:27.270Z,95.10
2022-11-02T12:47:44.116Z,95.40
2022-11-02T12:53:10.535Z,96.10
2022-11-02T12:58:30.492Z,97.10
2022-11-02T13:04:08.237Z,98.40
2022-11-02T13:09:23.790Z,99.20
2022-11-02T13:14:33.196Z,99.90
2022-11-02T13:19:38.965Z,99.30
2022-11-02T13:24:48.314Z,99.90
2022-11-02T13:29:50.950Z,99.90
2022-11-02T13:34:54.556Z,99.90
2022-11-02T13:40:00.109Z,99.10
2022-11-02T13:45:30.768Z,99.00
2022-11-02T13:50:38.994Z,99.50
2022-11-02T13:56:05.453Z,99.90
2022-11-02T14:01:10.576Z,99.90
2022-11-02T14:06:15.428Z,99.90
2022-11-02T14:11:17.219Z,99.90
2022-11-02T14:16:50.450Z,99.90
2022-11-02T14:21:55.106Z,99.90
2022-11-02T14:26:57.611Z,99.90
2022-11-02T14:32:06.502Z,99.90
2022-11-02T14:37:44.558Z,99.90
2022-11-02T14:43:25.290Z,99.90
2022-11-02T14:48:41.824Z,99.90
2022-11-02T14:53:43.778Z,99.90
2022-11-02T14:58:56.741Z,99.90
2022-11-02T15:03:58.536Z,99.90
2022-11-02T15:09:04.133Z,99.90
2022-11-02T15:14:48.702Z,99.90
2022-11-02T15:19:57.569Z,99.90
2022-11-02T15:25:05.253Z,99.90
2022-11-02T15:30:13.909Z,99.90
2022-11-02T15:35:29.991Z,99.90
2022-11-02T15:40:46.172Z,99.90
2022-11-02T15:46:03.523Z,99.90
2022-11-02T15:51:21.814Z,99.90
2022-11-02T15:56:40.268Z,99.90
2022-11-02T16:01:43.955Z,99.90
2022-11-02T16:06:56.971Z,99.90
2022-11-02T16:12:12.346Z,99.90
2022-11-02T16:17:27.319Z,99.90
2022-11-02T16:22:34.138Z,99.90
2022-11-02T16:27:51.570Z,99.90
2022-11-02T16:33:01.824Z,99.90
2022-11-02T16:38:12.399Z,99.90
2022-11-02T16:43:16.753Z,99.90
2022-11-02T16:48:29.562Z,99.90
2022-11-02T16:53:36.664Z,99.90
2022-11-02T16:58:45.098Z,99.90
2022-11-02T17:03:50.246Z,99.90
2022-11-02T17:08:56.134Z,99.90
2022-11-02T17:14:02.914Z,99.90
2022-11-02T17:19:05.911Z,99.90
2022-11-02T17:24:28.593Z,99.90
2022-11-02T17:29:32.705Z,99.90
2022-11-02T17:34:36.215Z,99.90
2022-11-02T17:39:38.770Z,99.90
2022-11-02T17:44:41.573Z,99.90
2022-11-02T17:49:43.426Z,99.90
2022-11-02T17:54:45.254Z,99.90
2022-11-02T17:59:47.090Z,99.90
2022-11-02T18:04:48.922Z,99.90
2022-11-02T18:09:50.730Z,99.90
2022-11-02T18:14:52.598Z,99.90
2022-11-02T18:19:55.203Z,99.90
2022-11-02T18:24:57.083Z,99.90
2022-11-02T18:29:58.881Z,99.90
2022-11-02T18:35:00.722Z,99.90
2022-11-02T18:40:02.627Z,99.90
2022-11-02T18:45:06.006Z,99.90
2022-11-02T18:50:08.906Z,99.90
2022-11-02T18:55:10.712Z,99.90
2022-11-02T19:00:13.886Z,99.90
2022-11-02T19:05:41.996Z,99.90
2022-11-02T19:10:47.599Z,99.90
2022-11-02T19:15:49.516Z,99.90
2022-11-02T19:20:51.351Z,99.90
2022-11-02T19:25:53.141Z,99.90
2022-11-02T19:30:54.968Z,99.90
2022-11-02T19:35:57.998Z,99.90
2022-11-02T19:41:11.806Z,99.90
2022-11-02T19:46:16.187Z,99.90
2022-11-02T19:51:26.324Z,99.90
2022-11-02T19:56:30.715Z,99.90
2022-11-02T20:01:38.418Z,99.90
2022-11-02T20:06:42.691Z,99.90
2022-11-02T20:11:45.491Z,99.90
2022-11-02T20:16:58.262Z,99.90
2022-11-02T20:22:06.331Z,99.90
2022-11-02T20:27:08.168Z,99.90
2022-11-02T20:32:10.416Z,99.90
2022-11-02T20:37:12.734Z,99.90
2022-11-02T20:42:14.552Z,99.90
2022-11-02T20:47:16.408Z,99.90
2022-11-02T20:52:19.057Z,99.90
2022-11-02T20:57:22.479Z,99.90
2022-11-02T21:02:24.807Z,99.90
2022-11-02T21:07:26.798Z,99.90
2022-11-02T21:12:47.096Z,99.90
2022-11-02T21:17:49.039Z,99.90
2022-11-02T21:22:51.179Z,99.90
2022-11-02T21:27:53.045Z,99.90
2022-11-02T21:32:54.913Z,99.90
2022-11-02T21:38:00.079Z,99.90
2022-11-02T21:43:05.054Z,99.90
2022-11-02T21:48:07.193Z,99.90
2022-11-02T21:53:09.144Z,99.90
2022-11-02T21:58:10.978Z,99.90
2022-11-02T22:03:12.818Z,99.90
2022-11-02T22:08:33.269Z,99.90
2022-11-02T22:13:35.949Z,99.90
2022-11-02T22:18:38.176Z,99.90
2022-11-02T22:23:40.562Z,99.90
2022-11-02T22:28:43.926Z,99.90
2022-11-02T22:33:48.035Z,99.90
2022-11-02T22:38:56.362Z,99.90
2022-11-02T22:44:04.919Z,99.90
2022-11-02T22:49:08.153Z,99.90
2022-11-02T22:54:11.843Z,99.90
2022-11-02T22:59:14.006Z,99.90
2022-11-02T23:04:15.796Z,99.90
2022-11-02T23:09:17.629Z,99.90
2022-11-02T23:14:21.143Z,99.90
2022-11-02T23:19:30.971Z,99.90
2022-11-02T23:24:51.597Z,99.90
2022-11-02T23:30:12.096Z,99.90
2022-11-02T23:35:32.378Z,99.90
2022-11-02T23:40:34.230Z,99.90
2022-11-02T23:45:36.098Z,99.90
2022-11-02T23:50:56.567Z,99.90
2022-11-02T23:56:17.405Z,99.90
